createdAt,value
2022-12-23T00:01:23.218Z,13.20
2022-12-23T00:06:34.742Z,13.20
2022-12-23T00:12:11.483Z,13.30
2022-12-23T00:17:22.707Z,13.30
2022-12-23T00:22:55.314Z,13.30
2022-12-23T00:28:08.223Z,13.30
2022-12-23T00:33:12.483Z,13.40
2022-12-23T00:38:18.308Z,13.40
2022-12-23T00:43:24.790Z,13.40
2022-12-23T00:48:53.044Z,13.40
2022-12-23T00:54:49.259Z,13.40
2022-12-23T01:00:44.535Z,13.40
2022-12-23T01:05:49.367Z,13.40
2022-12-23T01:10:56.960Z,13.30
2022-12-23T01:16:17.917Z,13.30
2022-12-23T01:27:05.954Z,13.30
2022-12-23T01:32:11.699Z,13.30
2022-12-23T01:37:15.328Z,13.40
2022-12-23T01:42:39.266Z,13.40
2022-12-23T01:47:54.533Z,13.40
2022-12-23T01:53:08.708Z,13.50
2022-12-23T01:58:20.157Z,13.50
2022-12-23T02:03:41.198Z,13.50
2022-12-23T02:09:02.051Z,13.50
2022-12-23T02:14:44.858Z,13.50
2022-12-23T02:20:12.040Z,13.50
2022-12-23T02:25:29.419Z,13.50
2022-12-23T02:31:01.562Z,13.50
2022-12-23T02:36:09.495Z,13.50
2022-12-23T02:41:23.269Z,13.50
2022-12-23T02:46:33.839Z,13.50
2022-12-23T02:51:42.733Z,13.50
2022-12-23T02:56:50.146Z,13.50
2022-12-23T03:01:54.953Z,13.40
2022-12-23T03:07:04.367Z,13.50
2022-12-23T03:12:28.234Z,13.50
2022-12-23T03:17:56.266Z,13.40
2022-12-23T03:23:32.822Z,13.40
2022-12-23T03:28:49.395Z,13.50
2022-12-23T03:34:00.631Z,13.50
2022-12-23T03:39:06.095Z,13.50
2022-12-23T03:44:19.903Z,13.40
2022-12-23T03:49:33.474Z,13.50
2022-12-23T03:55:05.900Z,13.50
2022-12-23T04:00:08.668Z,13.50
2022-12-23T04:05:24.333Z,13.50
2022-12-23T04:10:27.691Z,13.60
2022-12-23T04:15:30.668Z,13.60
2022-12-23T04:20:32.833Z,13.60
2022-12-23T04:25:35.144Z,13.70
2022-12-23T04:30:37.328Z,13.70
2022-12-23T04:35:39.985Z,13.70
2022-12-23T04:40:48.421Z,13.70
2022-12-23T04:45:52.399Z,13.70
2022-12-23T04:50:54.891Z,13.60
2022-12-23T04:55:57.113Z,13.60
2022-12-23T05:01:07.748Z,13.60
2022-12-23T05:06:10.483Z,13.60
2022-12-23T05:11:12.765Z,13.60
2022-12-23T05:16:15.422Z,13.50
2022-12-23T05:21:18.161Z,13.50
2022-12-23T05:26:20.563Z,13.50
2022-12-23T05:31:23.184Z,13.50
2022-12-23T05:36:26.091Z,13.50
2022-12-23T05:41:28.493Z,13.50
2022-12-23T05:46:30.870Z,13.60
2022-12-23T05:51:33.463Z,13.60
2022-12-23T05:56:36.709Z,13.70
2022-12-23T06:01:38.991Z,13.60
2022-12-23T06:06:41.265Z,13.60
2022-12-23T06:11:46.303Z,13.60
2022-12-23T06:16:48.847Z,13.60
2022-12-23T06:21:51.069Z,13.50
2022-12-23T06:26:57.301Z,13.50
2022-12-23T06:32:00.852Z,13.50
2022-12-23T06:37:03.184Z,13.60
2022-12-23T06:42:06.529Z,13.60
2022-12-23T06:47:08.691Z,13.60
2022-12-23T06:52:12.238Z,13.70
2022-12-23T06:57:15.185Z,13.70
2022-12-23T07:02:18.166Z,13.70
2022-12-23T07:07:20.520Z,13.70
2022-12-23T07:12:24.094Z,13.70
2022-12-23T07:17:27.209Z,13.80
2022-12-23T07:22:29.407Z,13.70
2022-12-23T07:27:35.084Z,13.70
2022-12-23T07:32:37.391Z,13.70
2022-12-23T07:37:39.633Z,13.70
2022-12-23T07:42:45.759Z,13.60
2022-12-23T07:47:57.878Z,13.60
2022-12-23T07:53:02.851Z,13.60
2022-12-23T07:58:05.102Z,13.50
2022-12-23T08:03:08.386Z,13.50
2022-12-23T08:08:10.572Z,13.50
2022-12-23T08:13:12.720Z,13.40
2022-12-23T08:18:22.691Z,13.40
2022-12-23T08:23:27.789Z,13.30
2022-12-23T08:28:31.806Z,13.30
2022-12-23T08:33:39.417Z,13.30
2022-12-23T08:38:42.521Z,13.30
2022-12-23T08:43:51.882Z,13.30
2022-12-23T08:48:54.904Z,13.30
2022-12-23T08:54:01.714Z,13.30
2022-12-23T08:59:04.584Z,13.30
2022-12-23T09:04:10.347Z,13.30
2022-12-23T09:09:16.407Z,13.30
2022-12-23T09:14:23.092Z,13.30
2022-12-23T09:19:26.875Z,13.30
2022-12-23T09:24:30.797Z,13.30
2022-12-23T09:29:36.964Z,13.30
2022-12-23T09:34:42.534Z,13.30
2022-12-23T09:39:48.056Z,13.30
2022-12-23T09:45:02.072Z,13.30
2022-12-23T09:50:14.997Z,13.30
2022-12-23T09:55:47.270Z,13.30
2022-12-23T10:01:20.091Z,13.30
2022-12-23T10:06:32.743Z,13.40
2022-12-23T10:11:42.763Z,13.40
2022-12-23T10:16:51.685Z,13.50
2022-12-23T10:22:05.072Z,13.50
2022-12-23T10:27:26.621Z,13.60
2022-12-23T10:33:02.412Z,13.60
2022-12-23T10:38:31.142Z,13.60
2022-12-23T10:44:00.654Z,13.60
2022-12-23T10:49:31.821Z,13.70
2022-12-23T10:54:38.899Z,13.60
2022-12-23T10:59:41.226Z,13.50
2022-12-23T11:04:47.759Z,13.60
2022-12-23T11:10:03.708Z,13.60
2022-12-23T11:15:38.838Z,13.70
2022-12-23T11:20:46.043Z,13.60
2022-12-23T11:25:49.031Z,13.60
2022-12-23T11:31:12.116Z,13.60
2022-12-23T11:36:26.825Z,13.60
2022-12-23T11:41:44.171Z,13.60
2022-12-23T11:46:54.523Z,13.60
2022-12-23T11:52:17.332Z,13.60
2022-12-23T11:57:30.582Z,13.70
2022-12-23T12:02:41.952Z,13.70
2022-12-23T12:07:48.720Z,13.70
2022-12-23T12:13:03.279Z,13.70
2022-12-23T12:18:14.333Z,13.70
2022-12-23T12:24:14.671Z,13.70
2022-12-23T12:29:33.232Z,13.80
2022-12-23T12:34:39.975Z,13.80
2022-12-23T12:40:08.556Z,13.70
2022-12-23T12:45:26.146Z,13.70
2022-12-23T12:50:39.427Z,13.60
2022-12-23T12:55:53.391Z,13.60
2022-12-23T13:01:04.818Z,13.50
2022-12-23T13:06:46.292Z,13.60
2022-12-23T13:12:05.636Z,13.70
2022-12-23T13:17:22.131Z,13.80
2022-12-23T13:22:41.910Z,13.70
2022-12-23T13:28:07.805Z,13.80
2022-12-23T13:33:32.157Z,13.90
2022-12-23T13:38:43.681Z,13.90
2022-12-23T13:44:10.318Z,14.00
2022-12-23T13:49:56.744Z,13.70
2022-12-23T13:55:32.084Z,13.60
2022-12-23T14:00:35.435Z,13.50
2022-12-23T14:05:53.243Z,13.30
2022-12-23T14:11:03.316Z,13.30
2022-12-23T14:16:44.231Z,13.30
2022-12-23T14:22:07.940Z,13.20
2022-12-23T14:27:19.744Z,13.10
2022-12-23T14:32:29.545Z,13.00
2022-12-23T14:37:39.628Z,13.00
2022-12-23T14:42:44.781Z,12.90
2022-12-23T14:47:49.954Z,12.80
2022-12-23T14:59:04.870Z,12.80
2022-12-23T15:10:17.528Z,12.70
2022-12-23T15:16:01.053Z,12.70
2022-12-23T15:21:27.559Z,12.70
2022-12-23T15:26:32.223Z,12.60
2022-12-23T15:31:53.876Z,12.60
2022-12-23T15:37:00.541Z,12.50
2022-12-23T15:42:15.230Z,12.40
2022-12-23T15:47:49.319Z,12.40
2022-12-23T15:53:22.063Z,12.30
2022-12-23T15:58:47.437Z,12.30
2022-12-23T16:03:59.376Z,12.30
2022-12-23T16:09:39.605Z,12.30
2022-12-23T16:14:54.546Z,12.20
2022-12-23T16:20:38.042Z,12.20
2022-12-23T16:25:58.430Z,12.10
2022-12-23T16:31:42.772Z,12.10
2022-12-23T16:36:51.982Z,12.20
2022-12-23T16:42:04.166Z,12.10
2022-12-23T16:47:20.009Z,12.10
2022-12-23T16:52:53.541Z,12.20
2022-12-23T16:57:56.740Z,12.20
2022-12-23T17:03:19.939Z,12.20
2022-12-23T17:08:42.598Z,12.30
2022-12-23T17:13:49.442Z,12.30
2022-12-23T17:19:05.062Z,12.20
2022-12-23T17:24:28.328Z,12.30
2022-12-23T17:29:48.486Z,12.30
2022-12-23T17:35:01.785Z,12.30
2022-12-23T17:40:28.961Z,12.30
2022-12-23T17:45:38.950Z,12.20
2022-12-23T17:51:12.113Z,12.20
2022-12-23T17:56:20.929Z,12.30
2022-12-23T18:01:37.199Z,12.20
2022-12-23T18:06:40.172Z,12.30
2022-12-23T18:11:47.988Z,12.30
2022-12-23T18:16:50.650Z,12.30
2022-12-23T18:21:59.090Z,12.40
2022-12-23T18:27:03.379Z,12.30
2022-12-23T18:32:06.411Z,12.20
2022-12-23T18:37:10.186Z,12.20
2022-12-23T18:47:42.555Z,12.10
2022-12-23T18:52:57.984Z,12.10
2022-12-23T18:58:03.825Z,12.10
2022-12-23T19:03:44.005Z,12.10
2022-12-23T19:08:51.927Z,12.10
2022-12-23T19:13:57.664Z,12.20
2022-12-23T19:19:05.895Z,12.10
2022-12-23T19:24:24.576Z,12.10
2022-12-23T19:30:32.893Z,12.20
2022-12-23T19:36:14.376Z,12.10
2022-12-23T19:41:33.017Z,12.10
2022-12-23T19:52:35.008Z,11.90
2022-12-23T19:58:21.283Z,12.00
2022-12-23T20:03:44.536Z,12.00
2022-12-23T20:09:00.874Z,12.00
2022-12-23T20:14:21.715Z,12.00
2022-12-23T20:19:45.494Z,12.10
2022-12-23T20:24:55.061Z,12.10
2022-12-23T20:30:02.991Z,12.10
2022-12-23T20:35:11.785Z,12.00
2022-12-23T20:40:27.387Z,12.00
2022-12-23T20:46:08.613Z,11.90
2022-12-23T20:58:57.986Z,12.00
2022-12-23T21:04:12.676Z,12.00
2022-12-23T21:09:16.896Z,12.10
2022-12-23T21:14:20.088Z,12.10
2022-12-23T21:19:34.717Z,12.20
2022-12-23T21:25:06.745Z,12.20
2022-12-23T21:30:15.023Z,12.30
2022-12-23T21:41:13.347Z,12.20
2022-12-23T21:46:21.999Z,12.30
2022-12-23T21:51:40.684Z,12.20
2022-12-23T21:56:46.558Z,12.20
2022-12-23T22:02:05.503Z,12.10
2022-12-23T22:07:20.392Z,12.10
2022-12-23T22:12:31.614Z,12.10
2022-12-23T22:17:37.304Z,12.10
2022-12-23T22:23:08.211Z,12.00
2022-12-23T22:28:45.815Z,11.90
2022-12-23T22:33:53.693Z,11.90
2022-12-23T22:39:33.589Z,11.80
2022-12-23T22:44:48.925Z,11.70
2022-12-23T22:49:55.229Z,11.70
2022-12-23T22:54:58.035Z,11.80
2022-12-23T23:00:14.745Z,11.70
2022-12-23T23:05:25.395Z,11.60
2022-12-23T23:10:27.775Z,11.50
2022-12-23T23:15:38.077Z,11.50
2022-12-23T23:20:54.443Z,11.50
2022-12-23T23:32:07.800Z,11.40
2022-12-23T23:37:09.971Z,11.40
2022-12-23T23:42:24.419Z,11.30
2022-12-23T23:47:37.678Z,11.20
2022-12-23T23:52:44.893Z,11.20
2022-12-23T23:57:51.915Z,11.00
